Time;durP1;ratioP1;P1;durP2;ratioP2;P2;SDS_P1;SDS_P2;PMS_P1;PMS_P2;Temp;Humidity;BMP_temperature;BMP_pressure;BME280_temperature;BME280_humidity;BME280_pressure;Samples;Min_cycle;Max_cycle;Signal;HPM_P1;HPM_P2
2023/08/10 00:00:36;;;;;;;;;8.33;7.67;;;;;;;;5056612;28;45905;-78
2023/08/10 00:03:01;;;;;;;;;9.33;7.33;;;;;;;;5053936;28;46578;-79
2023/08/10 00:05:27;;;;;;;;;6.33;6.00;;;;;;;;5069697;28;46793;-77
2023/08/10 00:07:52;;;;;;;;;10.00;8.33;;;;;;;;5052554;28;45528;-78
2023/08/10 00:10:17;;;;;;;;;4.00;4.00;;;;;;;;5072360;28;45573;-77
2023/08/10 00:12:43;;;;;;;;;6.67;5.67;;;;;;;;5071413;28;45510;-78
2023/08/10 00:15:08;;;;;;;;;8.67;6.33;;;;;;;;5055644;28;46516;-77
2023/08/10 00:17:33;;;;;;;;;5.33;5.00;;;;;;;;5073911;28;45512;-79
2023/08/10 00:19:59;;;;;;;;;9.33;7.33;;;;;;;;5065987;28;45801;-77
2023/08/10 00:22:24;;;;;;;;;12.00;8.67;;;;;;;;5066248;28;45759;-77
2023/08/10 00:24:49;;;;;;;;;13.33;10.33;;;;;;;;5063139;28;45926;-78
2023/08/10 00:27:14;;;;;;;;;13.00;11.33;;;;;;;;5053169;28;45872;-78
2023/08/10 00:29:42;;;;;;;;;7.67;6.67;;;;;;;;5072057;28;45485;-77
2023/08/10 00:32:08;;;;;;;;;8.00;7.00;;;;;;;;5058410;28;45689;-76
2023/08/10 00:34:33;;;;;;;;;8.67;8.33;;;;;;;;5070663;28;46483;-77
2023/08/10 00:36:58;;;;;;;;;6.00;6.00;;;;;;;;5071410;28;45778;-78
2023/08/10 00:39:23;;;;;;;;;9.67;8.00;;;;;;;;5052589;28;45699;-78
2023/08/10 00:41:49;;;;;;;;;7.00;7.00;;;;;;;;5071738;28;45648;-77
2023/08/10 00:44:16;;;;;;;;;6.00;6.00;;;;;;;;5072259;28;46943;-76
2023/08/10 00:46:41;;;;;;;;;5.33;5.33;;;;;;;;5053101;28;45851;-77
2023/08/10 00:49:06;;;;;;;;;5.67;5.67;;;;;;;;5054675;28;45660;-77
2023/08/10 00:51:32;;;;;;;;;7.33;7.33;;;;;;;;5071531;28;45412;-78
2023/08/10 00:53:57;;;;;;;;;8.67;6.33;;;;;;;;5071301;28;45485;-77
2023/08/10 00:56:22;;;;;;;;;7.67;6.67;;;;;;;;5071851;28;45364;-77
2023/08/10 00:58:48;;;;;;;;;7.00;6.67;;;;;;;;5072498;28;45515;-78
2023/08/10 01:01:14;;;;;;;;;7.67;6.00;;;;;;;;5072904;28;45497;-79
2023/08/10 01:03:40;;;;;;;;;9.67;6.67;;;;;;;;5053604;28;47081;-76
2023/08/10 01:06:16;;;;;;;;;10.00;8.00;;;;;;;;5070559;28;45363;-77
2023/08/10 01:08:54;;;;;;;;;8.33;8.00;;;;;;;;5064882;28;44824;-77
2023/08/10 01:11:19;;;;;;;;;9.00;6.33;;;;;;;;5075395;28;45987;-79
2023/08/10 01:13:49;;;;;;;;;9.67;8.33;;;;;;;;5075353;28;46477;-76
2023/08/10 01:16:14;;;;;;;;;7.33;7.33;;;;;;;;5055763;28;45751;-77
2023/08/10 01:18:41;;;;;;;;;9.67;9.67;;;;;;;;5056067;28;45558;-77
2023/08/10 01:21:22;;;;;;;;;10.67;6.33;;;;;;;;5073076;28;45600;-79
2023/08/10 01:23:48;;;;;;;;;7.33;7.33;;;;;;;;5054668;28;48406;-77
2023/08/10 01:26:14;;;;;;;;;10.00;7.67;;;;;;;;5072239;28;45620;-78
2023/08/10 01:28:40;;;;;;;;;10.67;7.00;;;;;;;;5071506;28;45628;-77
2023/08/10 01:31:06;;;;;;;;;11.00;9.00;;;;;;;;5049440;28;46010;-77
2023/08/10 01:33:33;;;;;;;;;7.67;7.33;;;;;;;;5063398;28;45707;-77
2023/08/10 01:35:58;;;;;;;;;8.67;8.33;;;;;;;;5071751;28;45889;-77
2023/08/10 01:38:23;;;;;;;;;7.67;6.00;;;;;;;;5053430;28;45589;-78
2023/08/10 01:40:50;;;;;;;;;6.33;6.33;;;;;;;;5048878;28;45962;-77
2023/08/10 01:43:15;;;;;;;;;6.00;6.00;;;;;;;;5051455;28;47258;-79
2023/08/10 01:45:44;;;;;;;;;11.00;9.00;;;;;;;;5052030;28;45821;-76
2023/08/10 01:48:17;;;;;;;;;8.67;6.00;;;;;;;;5070667;28;45783;-77
2023/08/10 01:50:45;;;;;;;;;9.00;7.33;;;;;;;;5069497;28;45449;-76
2023/08/10 01:53:12;;;;;;;;;9.00;6.33;;;;;;;;5069572;28;46051;-77
2023/08/10 01:55:39;;;;;;;;;9.00;7.00;;;;;;;;5069880;28;45731;-77
2023/08/10 01:58:04;;;;;;;;;6.00;5.00;;;;;;;;5043952;28;45575;-78
2023/08/10 02:00:30;;;;;;;;;4.67;4.33;;;;;;;;5049264;28;45980;-77
2023/08/10 02:02:55;;;;;;;;;6.33;6.00;;;;;;;;5053139;28;46472;-78
2023/08/10 02:05:20;;;;;;;;;10.67;6.67;;;;;;;;5076015;28;45797;-77
2023/08/10 02:07:48;;;;;;;;;7.00;6.33;;;;;;;;5076980;28;45894;-77
2023/08/10 02:10:14;;;;;;;;;8.00;7.33;;;;;;;;5071671;28;45518;-77
2023/08/10 02:12:39;;;;;;;;;6.00;6.00;;;;;;;;5070978;28;45939;-78
2023/08/10 02:15:05;;;;;;;;;5.33;5.33;;;;;;;;5070713;28;45880;-77
2023/08/10 02:17:35;;;;;;;;;6.00;5.00;;;;;;;;5070386;28;45608;-78
2023/08/10 02:20:01;;;;;;;;;8.00;8.00;;;;;;;;5070040;28;46075;-77
2023/08/10 02:22:26;;;;;;;;;8.33;7.00;;;;;;;;5052173;28;46324;-77
2023/08/10 02:24:51;;;;;;;;;10.33;8.00;;;;;;;;5070943;28;45557;-76
2023/08/10 02:27:17;;;;;;;;;7.33;6.00;;;;;;;;5070471;28;45656;-77
2023/08/10 02:29:43;;;;;;;;;7.00;7.00;;;;;;;;5069957;28;45594;-77
2023/08/10 02:32:08;;;;;;;;;8.33;6.00;;;;;;;;5039307;28;46617;-79
2023/08/10 02:34:34;;;;;;;;;8.67;7.67;;;;;;;;5067062;28;45874;-77
2023/08/10 02:36:59;;;;;;;;;5.33;5.33;;;;;;;;5053790;28;46017;-78
2023/08/10 02:39:24;;;;;;;;;10.33;8.67;;;;;;;;5054850;28;45756;-78
2023/08/10 02:41:52;;;;;;;;;5.67;3.33;;;;;;;;5060920;28;45471;-77
2023/08/10 02:44:19;;;;;;;;;8.00;7.00;;;;;;;;5061764;28;45674;-77
2023/08/10 02:46:44;;;;;;;;;10.33;9.00;;;;;;;;5065520;28;45542;-76
2023/08/10 02:49:09;;;;;;;;;10.33;8.00;;;;;;;;5069371;28;46032;-78
2023/08/10 02:51:35;;;;;;;;;11.00;8.33;;;;;;;;5071160;28;46176;-76
2023/08/10 02:54:00;;;;;;;;;8.67;6.67;;;;;;;;5053711;28;45721;-78
2023/08/10 02:56:25;;;;;;;;;11.33;9.33;;;;;;;;5064166;28;45838;-76
2023/08/10 02:58:51;;;;;;;;;12.00;10.00;;;;;;;;5067895;28;45998;-76
2023/08/10 03:01:16;;;;;;;;;11.00;10.33;;;;;;;;5069154;28;45449;-78
2023/08/10 03:03:42;;;;;;;;;10.00;8.67;;;;;;;;5068813;28;45797;-78
2023/08/10 03:06:07;;;;;;;;;11.67;8.33;;;;;;;;5069374;28;45624;-77
2023/08/10 03:08:32;;;;;;;;;7.00;7.00;;;;;;;;5069226;28;45514;-77
2023/08/10 03:10:57;;;;;;;;;10.33;8.00;;;;;;;;5063714;28;45976;-78
2023/08/10 03:13:23;;;;;;;;;10.67;9.67;;;;;;;;5069413;28;45799;-78
2023/08/10 03:15:49;;;;;;;;;11.33;11.33;;;;;;;;5073024;28;45850;-77
2023/08/10 03:18:14;;;;;;;;;7.67;7.67;;;;;;;;5051099;28;46141;-76
2023/08/10 03:20:40;;;;;;;;;11.33;8.33;;;;;;;;5070025;28;45630;-77
2023/08/10 03:23:05;;;;;;;;;12.33;10.33;;;;;;;;5054085;28;45401;-76
2023/08/10 03:25:32;;;;;;;;;9.67;9.00;;;;;;;;5072253;28;45626;-77
2023/08/10 03:27:57;;;;;;;;;10.67;6.67;;;;;;;;5071355;28;45525;-78
2023/08/10 03:30:22;;;;;;;;;12.00;11.33;;;;;;;;5071499;28;45434;-77
2023/08/10 03:32:48;;;;;;;;;6.33;6.33;;;;;;;;5072122;28;45655;-77
2023/08/10 03:35:14;;;;;;;;;12.67;11.33;;;;;;;;5072069;28;45322;-76
2023/08/10 03:37:40;;;;;;;;;10.00;8.33;;;;;;;;5070570;28;45608;-76
2023/08/10 03:40:07;;;;;;;;;9.00;9.00;;;;;;;;5072141;28;45322;-75
2023/08/10 03:42:32;;;;;;;;;10.67;9.67;;;;;;;;5072631;28;45777;-76
2023/08/10 03:44:58;;;;;;;;;8.33;7.67;;;;;;;;5040837;28;45775;-78
2023/08/10 03:47:23;;;;;;;;;10.67;9.67;;;;;;;;5066276;28;45561;-76
2023/08/10 03:49:49;;;;;;;;;8.00;5.67;;;;;;;;5057359;28;47278;-76
2023/08/10 03:52:14;;;;;;;;;11.00;9.33;;;;;;;;5072764;28;45775;-76
2023/08/10 03:54:39;;;;;;;;;11.00;9.33;;;;;;;;5069356;28;45594;-78
2023/08/10 03:57:05;;;;;;;;;10.00;8.00;;;;;;;;5069301;28;45824;-77
2023/08/10 03:59:30;;;;;;;;;9.33;9.00;;;;;;;;5049955;28;47005;-78
2023/08/10 04:01:55;;;;;;;;;10.00;9.33;;;;;;;;5069311;28;45427;-77
2023/08/10 04:04:21;;;;;;;;;11.67;8.33;;;;;;;;5071731;28;45743;-79
2023/08/10 04:06:46;;;;;;;;;10.33;7.67;;;;;;;;5071792;28;45743;-78
2023/08/10 04:09:11;;;;;;;;;7.00;7.00;;;;;;;;5052709;28;48257;-77
2023/08/10 04:11:37;;;;;;;;;8.33;8.33;;;;;;;;5053008;28;45524;-77
2023/08/10 04:14:02;;;;;;;;;10.00;8.33;;;;;;;;5054088;28;45384;-77
2023/08/10 04:16:27;;;;;;;;;11.00;10.67;;;;;;;;5071231;28;45911;-78
2023/08/10 04:18:53;;;;;;;;;10.33;9.33;;;;;;;;5070902;28;46108;-77
2023/08/10 04:21:18;;;;;;;;;10.67;9.33;;;;;;;;5071012;28;45737;-77
2023/08/10 04:23:43;;;;;;;;;13.33;9.67;;;;;;;;5071146;28;45584;-78
2023/08/10 04:26:09;;;;;;;;;8.00;7.33;;;;;;;;5069945;28;45760;-76
2023/08/10 04:28:34;;;;;;;;;16.00;12.00;;;;;;;;5060746;28;45469;-77
2023/08/10 04:30:59;;;;;;;;;10.00;9.33;;;;;;;;5051932;28;45904;-77
2023/08/10 04:33:25;;;;;;;;;9.33;9.00;;;;;;;;5071017;28;45837;-78
2023/08/10 04:35:50;;;;;;;;;11.33;9.33;;;;;;;;5071149;28;46142;-77
2023/08/10 04:38:15;;;;;;;;;10.67;8.67;;;;;;;;5067879;28;45826;-77
2023/08/10 04:40:43;;;;;;;;;12.67;9.67;;;;;;;;5069934;28;45752;-78
2023/08/10 04:43:08;;;;;;;;;10.67;8.67;;;;;;;;5051126;28;45972;-78
2023/08/10 04:45:34;;;;;;;;;9.67;9.67;;;;;;;;5062282;28;45709;-76
2023/08/10 04:47:59;;;;;;;;;10.33;7.33;;;;;;;;5068966;28;45836;-78
2023/08/10 04:50:25;;;;;;;;;8.33;6.67;;;;;;;;5070307;28;46014;-77
2023/08/10 04:52:51;;;;;;;;;10.67;9.33;;;;;;;;5052351;28;45527;-76
2023/08/10 04:55:18;;;;;;;;;11.00;9.33;;;;;;;;5070084;28;45457;-76
2023/08/10 04:57:44;;;;;;;;;10.67;8.33;;;;;;;;5070056;28;46789;-77
2023/08/10 05:00:14;;;;;;;;;9.33;8.33;;;;;;;;5070790;28;45738;-77
2023/08/10 05:02:40;;;;;;;;;9.00;7.67;;;;;;;;5049681;28;46409;-76
2023/08/10 05:05:06;;;;;;;;;8.33;8.33;;;;;;;;5071945;28;45698;-75
2023/08/10 05:07:31;;;;;;;;;9.00;9.00;;;;;;;;5069788;28;46407;-77
2023/08/10 05:09:57;;;;;;;;;10.00;7.00;;;;;;;;5070527;28;45854;-79
2023/08/10 05:12:22;;;;;;;;;9.00;7.67;;;;;;;;5044205;28;45701;-77
2023/08/10 05:14:48;;;;;;;;;10.33;9.00;;;;;;;;5070160;28;45508;-76
2023/08/10 05:17:13;;;;;;;;;9.67;9.67;;;;;;;;5070404;28;45460;-77
2023/08/10 05:19:39;;;;;;;;;11.33;8.67;;;;;;;;5070913;28;45901;-76
2023/08/10 05:22:04;;;;;;;;;11.33;8.33;;;;;;;;5072038;28;45644;-77
2023/08/10 05:24:29;;;;;;;;;12.00;12.00;;;;;;;;5069903;28;45856;-75
2023/08/10 05:26:54;;;;;;;;;7.00;7.00;;;;;;;;5048615;28;47305;-77
2023/08/10 05:29:20;;;;;;;;;9.33;8.33;;;;;;;;5063642;28;46862;-77
2023/08/10 05:31:46;;;;;;;;;7.00;7.00;;;;;;;;5051830;28;45843;-77
2023/08/10 05:34:11;;;;;;;;;7.67;7.33;;;;;;;;5054705;28;47187;-76
2023/08/10 05:36:36;;;;;;;;;9.00;7.00;;;;;;;;5085412;28;45438;-76
2023/08/10 05:39:03;;;;;;;;;10.25;9.25;;;;;;;;5077098;28;45752;-77
2023/08/10 05:41:28;;;;;;;;;8.75;7.50;;;;;;;;5052317;28;45792;-75
2023/08/10 05:43:53;;;;;;;;;6.75;6.50;;;;;;;;5062719;28;45848;-77
2023/08/10 05:46:31;;;;;;;;;9.50;8.50;;;;;;;;5064496;28;45836;-75
2023/08/10 05:48:56;;;;;;;;;7.50;7.50;;;;;;;;5052023;28;45774;-76
2023/08/10 05:51:21;;;;;;;;;8.25;5.25;;;;;;;;5051461;28;45792;-76
2023/08/10 05:53:47;;;;;;;;;6.00;5.25;;;;;;;;5041270;28;45840;-76
2023/08/10 05:56:12;;;;;;;;;9.75;6.75;;;;;;;;5069634;28;45883;-76
2023/08/10 05:58:37;;;;;;;;;8.00;7.00;;;;;;;;5051179;28;46043;-75
2023/08/10 06:01:03;;;;;;;;;8.50;6.75;;;;;;;;5070411;28;46688;-76
2023/08/10 06:03:28;;;;;;;;;11.25;8.00;;;;;;;;5052720;28;45671;-76
2023/08/10 06:05:54;;;;;;;;;4.25;4.25;;;;;;;;5062235;28;46212;-77
2023/08/10 06:08:19;;;;;;;;;5.75;5.75;;;;;;;;5069522;28;45911;-76
2023/08/10 06:10:49;;;;;;;;;9.00;7.00;;;;;;;;5046307;28;45463;-77
2023/08/10 06:13:14;;;;;;;;;9.00;6.75;;;;;;;;5069715;28;45874;-76
2023/08/10 06:15:39;;;;;;;;;7.25;7.00;;;;;;;;5069494;28;45895;-76
2023/08/10 06:18:04;;;;;;;;;7.75;7.00;;;;;;;;5067979;28;45473;-77
2023/08/10 06:20:30;;;;;;;;;7.00;6.00;;;;;;;;5069391;28;45822;-76
2023/08/10 06:22:55;;;;;;;;;10.00;9.00;;;;;;;;5068282;28;45895;-77
2023/08/10 06:25:20;;;;;;;;;7.50;7.50;;;;;;;;5069294;28;45628;-77
2023/08/10 06:27:47;;;;;;;;;9.25;7.00;;;;;;;;5051172;28;45572;-77
2023/08/10 06:30:13;;;;;;;;;7.00;7.00;;;;;;;;5070941;28;45744;-77
2023/08/10 06:32:39;;;;;;;;;9.75;8.00;;;;;;;;5069672;28;45584;-77
2023/08/10 06:35:05;;;;;;;;;10.75;7.25;;;;;;;;5069278;28;45550;-76
2023/08/10 06:37:30;;;;;;;;;8.00;6.25;;;;;;;;5069269;28;46135;-77
2023/08/10 06:39:55;;;;;;;;;7.25;5.25;;;;;;;;5050743;28;45782;-78
2023/08/10 06:42:21;;;;;;;;;8.25;6.25;;;;;;;;5068942;28;45563;-77
2023/08/10 06:44:46;;;;;;;;;7.75;7.25;;;;;;;;5055726;28;46356;-76
2023/08/10 06:47:11;;;;;;;;;5.75;4.25;;;;;;;;5051231;28;45344;-77
2023/08/10 06:49:37;;;;;;;;;7.25;6.75;;;;;;;;5052431;28;46670;-78
2023/08/10 06:52:03;;;;;;;;;8.00;6.75;;;;;;;;5072983;28;45974;-78
2023/08/10 06:54:28;;;;;;;;;6.00;6.00;;;;;;;;5072809;28;45624;-78
2023/08/10 06:56:54;;;;;;;;;6.50;6.00;;;;;;;;5073137;28;45867;-77
2023/08/10 06:59:19;;;;;;;;;6.50;6.00;;;;;;;;5072152;28;45811;-77
2023/08/10 07:01:44;;;;;;;;;5.00;5.00;;;;;;;;5074524;28;45491;-77
2023/08/10 07:04:10;;;;;;;;;6.25;6.25;;;;;;;;5071144;28;45472;-78
2023/08/10 07:06:35;;;;;;;;;9.25;7.50;;;;;;;;5067664;28;46091;-76
2023/08/10 07:09:00;;;;;;;;;5.50;5.50;;;;;;;;5055588;28;45546;-76
2023/08/10 07:11:26;;;;;;;;;5.75;5.75;;;;;;;;5073069;28;45979;-77
2023/08/10 07:13:51;;;;;;;;;6.00;6.00;;;;;;;;5071831;28;45436;-77
2023/08/10 07:16:16;;;;;;;;;9.50;8.00;;;;;;;;5066264;28;45741;-77
2023/08/10 07:18:41;;;;;;;;;9.00;8.00;;;;;;;;5082274;27;44772;-76
2023/08/10 07:21:07;;;;;;;;;6.00;6.00;;;;;;;;5070701;28;45708;-77
2023/08/10 07:23:32;;;;;;;;;7.75;7.75;;;;;;;;5054583;28;47284;-76
2023/08/10 07:25:57;;;;;;;;;7.50;6.25;;;;;;;;5078452;28;45844;-76
2023/08/10 07:28:26;;;;;;;;;6.50;5.50;;;;;;;;5085723;28;45761;-76
2023/08/10 07:30:52;;;;;;;;;9.50;7.00;;;;;;;;5085237;28;44995;-79
2023/08/10 07:33:17;;;;;;;;;8.75;7.50;;;;;;;;5085324;28;45546;-77
2023/08/10 07:35:44;;;;;;;;;13.00;10.00;;;;;;;;5067901;28;45425;-77
2023/08/10 07:38:10;;;;;;;;;9.25;8.00;;;;;;;;5086955;28;44930;-76
2023/08/10 07:40:35;;;;;;;;;9.00;9.00;;;;;;;;5083256;28;45410;-76
2023/08/10 07:43:00;;;;;;;;;9.00;9.00;;;;;;;;5081263;28;46580;-77
2023/08/10 07:45:25;;;;;;;;;10.75;10.25;;;;;;;;5068360;28;46064;-77
2023/08/10 07:47:51;;;;;;;;;7.50;7.50;;;;;;;;5085882;28;45269;-76
2023/08/10 07:50:16;;;;;;;;;8.75;7.75;;;;;;;;5068208;28;46095;-76
2023/08/10 07:52:41;;;;;;;;;6.75;6.75;;;;;;;;5086882;28;45656;-77
2023/08/10 07:55:07;;;;;;;;;8.25;7.00;;;;;;;;5068962;28;45908;-77
2023/08/10 07:57:32;;;;;;;;;9.75;8.50;;;;;;;;5069172;28;44905;-77
2023/08/10 08:00:00;;;;;;;;;8.75;8.00;;;;;;;;5087067;28;45181;-76
2023/08/10 08:02:28;;;;;;;;;7.50;6.50;;;;;;;;5067707;28;47541;-77
2023/08/10 08:04:53;;;;;;;;;10.25;7.75;;;;;;;;5068298;28;45475;-77
2023/08/10 08:07:18;;;;;;;;;5.75;5.75;;;;;;;;5086490;28;46014;-77
2023/08/10 08:09:44;;;;;;;;;6.00;6.00;;;;;;;;5066050;28;46942;-76
2023/08/10 08:12:09;;;;;;;;;6.00;6.00;;;;;;;;5069527;28;48206;-76
2023/08/10 08:14:35;;;;;;;;;6.50;6.00;;;;;;;;5087581;28;45752;-77
2023/08/10 08:17:00;;;;;;;;;7.25;7.00;;;;;;;;5086873;28;45491;-77
2023/08/10 08:19:26;;;;;;;;;7.75;6.50;;;;;;;;5086011;28;44827;-76
2023/08/10 08:21:51;;;;;;;;;7.25;6.00;;;;;;;;5087017;28;45596;-77
2023/08/10 08:24:17;;;;;;;;;8.50;7.25;;;;;;;;5068807;28;45358;-77
2023/08/10 08:26:42;;;;;;;;;5.50;5.50;;;;;;;;5088207;28;45706;-77
2023/08/10 08:29:07;;;;;;;;;4.75;4.25;;;;;;;;5069116;28;45973;-77
2023/08/10 08:31:33;;;;;;;;;5.00;4.00;;;;;;;;5069703;28;46967;-77
2023/08/10 08:33:58;;;;;;;;;4.00;3.00;;;;;;;;5081848;28;45738;-77
2023/08/10 08:36:24;;;;;;;;;4.75;4.00;;;;;;;;5074229;28;46040;-78
2023/08/10 08:38:49;;;;;;;;;4.00;4.00;;;;;;;;5071614;28;45684;-77
2023/08/10 08:41:16;;;;;;;;;8.25;4.00;;;;;;;;5071681;28;45597;-78
2023/08/10 08:43:43;;;;;;;;;4.50;3.50;;;;;;;;5071368;28;45811;-78
2023/08/10 08:46:08;;;;;;;;;4.00;4.00;;;;;;;;5071981;28;45908;-77
2023/08/10 08:48:34;;;;;;;;;3.50;3.50;;;;;;;;5053681;28;46020;-78
2023/08/10 08:51:00;;;;;;;;;3.25;3.25;;;;;;;;5055984;28;47199;-76
2023/08/10 08:53:25;;;;;;;;;5.00;5.00;;;;;;;;5060139;28;45498;-78
2023/08/10 08:55:50;;;;;;;;;3.00;3.00;;;;;;;;5065315;28;45510;-78
2023/08/10 08:58:17;;;;;;;;;3.50;3.50;;;;;;;;5074523;28;45528;-78
2023/08/10 09:00:49;;;;;;;;;4.25;3.50;;;;;;;;5075236;28;46008;-78
2023/08/10 09:03:15;;;;;;;;;2.00;2.00;;;;;;;;5078177;28;45387;-78
2023/08/10 09:05:41;;;;;;;;;3.50;3.50;;;;;;;;5049230;28;45579;-78
2023/08/10 09:08:06;;;;;;;;;3.50;3.50;;;;;;;;5073693;28;45764;-78
2023/08/10 09:10:32;;;;;;;;;3.75;3.75;;;;;;;;5072484;28;45348;-77
2023/08/10 09:13:08;;;;;;;;;3.00;3.00;;;;;;;;5052903;28;45772;-78
2023/08/10 09:15:33;;;;;;;;;3.00;3.00;;;;;;;;5052527;28;45780;-77
2023/08/10 09:17:59;;;;;;;;;3.00;3.00;;;;;;;;5053424;28;46457;-77
2023/08/10 09:20:25;;;;;;;;;4.00;4.00;;;;;;;;5051895;28;47028;-77
2023/08/10 09:22:54;;;;;;;;;2.25;2.25;;;;;;;;5071142;28;45479;-77
2023/08/10 09:25:20;;;;;;;;;3.00;3.00;;;;;;;;5073944;28;45492;-83
2023/08/10 09:27:47;;;;;;;;;6.00;3.00;;;;;;;;5046260;28;46320;-83
2023/08/10 09:30:13;;;;;;;;;2.50;2.50;;;;;;;;5050816;28;47125;-83
2023/08/10 09:32:38;;;;;;;;;2.75;2.75;;;;;;;;5073172;28;45571;-83
2023/08/10 09:35:05;;;;;;;;;2.75;2.50;;;;;;;;5056105;28;45431;-83
2023/08/10 09:37:31;;;;;;;;;3.50;2.25;;;;;;;;5051136;28;46223;-83
2023/08/10 09:40:06;;;;;;;;;3.00;3.00;;;;;;;;5051234;28;47201;-83
2023/08/10 09:42:32;;;;;;;;;2.00;2.00;;;;;;;;5077453;28;45936;-83
2023/08/10 09:44:58;;;;;;;;;2.75;2.75;;;;;;;;5046038;28;45453;-83
2023/08/10 09:47:24;;;;;;;;;2.00;2.00;;;;;;;;5058051;28;46043;-83
2023/08/10 09:50:04;;;;;;;;;4.25;2.50;;;;;;;;5057622;28;45542;-83
2023/08/10 09:52:30;;;;;;;;;3.25;3.25;;;;;;;;5057506;28;45636;-84
2023/08/10 09:54:56;;;;;;;;;4.25;3.00;;;;;;;;5057465;28;45332;-83
2023/08/10 09:57:21;;;;;;;;;2.50;2.00;;;;;;;;5055589;28;45990;-84
2023/08/10 09:59:47;;;;;;;;;2.00;2.00;;;;;;;;5047507;28;46711;-82
2023/08/10 10:02:13;;;;;;;;;2.00;2.00;;;;;;;;5075051;28;45531;-82
2023/08/10 10:04:38;;;;;;;;;2.75;2.75;;;;;;;;5065802;28;45769;-83
2023/08/10 10:07:05;;;;;;;;;3.00;2.50;;;;;;;;5057087;28;46879;-82
2023/08/10 10:09:33;;;;;;;;;2.00;2.00;;;;;;;;5075204;28;45616;-83
2023/08/10 10:11:58;;;;;;;;;4.00;4.00;;;;;;;;5069733;28;45676;-83
2023/08/10 10:14:24;;;;;;;;;3.50;3.50;;;;;;;;5051028;28;45383;-82
2023/08/10 10:16:51;;;;;;;;;3.25;2.50;;;;;;;;5068492;28;45916;-82
2023/08/10 10:19:16;;;;;;;;;3.50;2.50;;;;;;;;5054366;28;47433;-82
2023/08/10 10:21:42;;;;;;;;;3.25;2.25;;;;;;;;5054981;28;45822;-83
2023/08/10 10:24:09;;;;;;;;;4.00;3.00;;;;;;;;5054212;28;45583;-84
2023/08/10 10:26:34;;;;;;;;;3.00;3.00;;;;;;;;5056473;28;47178;-84
2023/08/10 10:29:18;;;;;;;;;5.00;3.00;;;;;;;;5067721;28;46299;-83
2023/08/10 10:31:43;;;;;;;;;5.75;4.00;;;;;;;;5053150;28;45741;-82
2023/08/10 10:34:14;;;;;;;;;4.00;4.00;;;;;;;;5074740;28;45513;-83
2023/08/10 10:36:40;;;;;;;;;3.00;3.00;;;;;;;;5077378;28;45649;-83
2023/08/10 10:39:07;;;;;;;;;3.00;2.00;;;;;;;;5075169;28;45567;-83
2023/08/10 10:41:36;;;;;;;;;4.00;4.00;;;;;;;;5072803;28;45854;-83
2023/08/10 10:44:05;;;;;;;;;3.25;3.25;;;;;;;;5073751;28;45411;-83
2023/08/10 10:46:38;;;;;;;;;3.00;3.00;;;;;;;;5073118;28;45372;-83
2023/08/10 10:49:14;;;;;;;;;3.00;3.00;;;;;;;;5071958;28;46421;-81
2023/08/10 10:52:03;;;;;;;;;3.00;3.00;;;;;;;;5052337;28;46161;-84
2023/08/10 10:54:33;;;;;;;;;3.50;3.50;;;;;;;;5058321;28;45745;-85
2023/08/10 10:56:59;;;;;;;;;4.00;3.00;;;;;;;;5052348;28;45706;-85
2023/08/10 10:59:25;;;;;;;;;3.00;2.00;;;;;;;;5047829;28;47256;-83
2023/08/10 11:01:51;;;;;;;;;1.50;0.50;;;;;;;;5066214;28;45902;-84
2023/08/10 11:04:16;;;;;;;;;2.50;2.50;;;;;;;;5051832;28;45744;-83
2023/08/10 11:06:42;;;;;;;;;3.00;3.00;;;;;;;;5054454;28;46640;-81
2023/08/10 11:09:07;;;;;;;;;3.00;3.00;;;;;;;;5053940;28;46747;-84
2023/08/10 11:11:32;;;;;;;;;3.75;3.00;;;;;;;;5053312;28;45572;-84
2023/08/10 11:13:58;;;;;;;;;4.50;3.25;;;;;;;;5071404;28;45616;-83
2023/08/10 11:16:23;;;;;;;;;5.50;5.50;;;;;;;;5041934;28;47310;-83
2023/08/10 11:18:50;;;;;;;;;3.50;2.50;;;;;;;;5070110;28;46365;-83
2023/08/10 11:21:16;;;;;;;;;4.25;4.00;;;;;;;;5055398;28;45422;-83
2023/08/10 11:23:41;;;;;;;;;4.75;3.25;;;;;;;;5072551;28;45540;-81
2023/08/10 11:26:07;;;;;;;;;3.50;2.00;;;;;;;;5067079;28;45532;-84
2023/08/10 11:28:34;;;;;;;;;3.75;3.75;;;;;;;;5046133;28;47055;-84
2023/08/10 11:31:03;;;;;;;;;2.75;2.75;;;;;;;;5069837;28;45631;-84
2023/08/10 11:33:28;;;;;;;;;3.00;3.00;;;;;;;;5069267;28;45549;-84
2023/08/10 11:35:53;;;;;;;;;3.00;3.00;;;;;;;;5074894;28;45370;-83
2023/08/10 11:38:19;;;;;;;;;2.75;2.75;;;;;;;;5057237;28;47190;-83
2023/08/10 11:40:45;;;;;;;;;3.50;2.75;;;;;;;;5049669;28;45474;-85
2023/08/10 11:43:14;;;;;;;;;3.50;2.00;;;;;;;;5056208;28;45466;-84
2023/08/10 11:45:39;;;;;;;;;3.00;3.00;;;;;;;;5041550;27;45930;-82
2023/08/10 11:48:06;;;;;;;;;3.75;3.75;;;;;;;;5063923;28;46112;-83
2023/08/10 11:50:31;;;;;;;;;3.50;3.50;;;;;;;;5048115;28;46043;-81
2023/08/10 11:52:58;;;;;;;;;3.00;3.00;;;;;;;;5058238;28;45908;-81
2023/08/10 11:55:27;;;;;;;;;4.00;4.00;;;;;;;;5065862;28;45474;-81
2023/08/10 11:57:54;;;;;;;;;4.50;4.50;;;;;;;;5046548;28;47172;-84
2023/08/10 12:00:23;;;;;;;;;4.00;4.00;;;;;;;;5066022;28;45724;-82
2023/08/10 12:02:57;;;;;;;;;4.00;4.00;;;;;;;;5055833;28;45947;-82
2023/08/10 12:05:35;;;;;;;;;5.00;4.00;;;;;;;;5051531;28;46956;-83
2023/08/10 12:08:00;;;;;;;;;5.00;5.00;;;;;;;;5039976;28;47182;-82
2023/08/10 12:10:25;;;;;;;;;6.00;3.50;;;;;;;;5054753;28;45832;-86
2023/08/10 12:12:57;;;;;;;;;3.00;3.00;;;;;;;;5051810;28;47018;-82
2023/08/10 12:15:23;;;;;;;;;4.00;4.00;;;;;;;;5070908;28;45600;-82
2023/08/10 12:17:49;;;;;;;;;5.00;4.00;;;;;;;;5065461;27;46373;-85
2023/08/10 12:20:14;;;;;;;;;4.25;3.25;;;;;;;;5064308;28;45560;-85
2023/08/10 12:22:39;;;;;;;;;5.00;4.50;;;;;;;;5063726;28;45451;-83
2023/08/10 12:25:05;;;;;;;;;4.50;3.25;;;;;;;;5073238;28;45191;-82
2023/08/10 12:27:30;;;;;;;;;2.25;2.25;;;;;;;;5060661;27;47664;-83
2023/08/10 12:29:55;;;;;;;;;5.00;3.75;;;;;;;;5053523;28;45890;-84
2023/08/10 12:32:21;;;;;;;;;3.00;3.00;;;;;;;;5073042;28;45798;-85
2023/08/10 12:34:46;;;;;;;;;3.00;3.00;;;;;;;;5052484;28;46275;-83
2023/08/10 12:37:11;;;;;;;;;4.00;4.00;;;;;;;;5053545;28;45754;-85
2023/08/10 12:39:37;;;;;;;;;2.00;2.00;;;;;;;;5054249;28;45743;-84
2023/08/10 12:42:02;;;;;;;;;3.75;2.00;;;;;;;;5073257;28;45279;-85
2023/08/10 12:44:28;;;;;;;;;3.00;3.00;;;;;;;;5072856;28;45344;-84
2023/08/10 12:46:53;;;;;;;;;4.25;3.00;;;;;;;;5065166;28;46810;-83
2023/08/10 12:49:19;;;;;;;;;4.25;4.00;;;;;;;;5059389;28;45930;-83
2023/08/10 12:51:44;;;;;;;;;3.25;3.25;;;;;;;;5076443;28;45499;-83
2023/08/10 12:54:09;;;;;;;;;4.00;3.00;;;;;;;;5057866;28;46552;-83
2023/08/10 12:56:34;;;;;;;;;3.00;3.00;;;;;;;;5076596;28;45522;-85
2023/08/10 12:59:00;;;;;;;;;4.25;4.25;;;;;;;;5079993;28;45485;-83
2023/08/10 13:01:25;;;;;;;;;3.25;3.25;;;;;;;;5078858;28;45838;-83
2023/08/10 13:03:50;;;;;;;;;4.50;4.00;;;;;;;;5077477;28;45637;-83
2023/08/10 13:06:16;;;;;;;;;4.00;4.00;;;;;;;;5081548;28;45775;-86
2023/08/10 13:08:41;;;;;;;;;5.75;4.00;;;;;;;;5064198;28;45430;-85
2023/08/10 13:11:06;;;;;;;;;5.00;2.75;;;;;;;;5076559;28;45394;-84
2023/08/10 13:13:32;;;;;;;;;4.00;3.50;;;;;;;;5078088;28;46411;-84
2023/08/10 13:15:57;;;;;;;;;2.00;2.00;;;;;;;;5059067;28;47733;-86
2023/08/10 13:18:22;;;;;;;;;3.00;3.00;;;;;;;;5078116;28;45779;-84
2023/08/10 13:20:47;;;;;;;;;3.25;3.25;;;;;;;;5059884;28;45764;-85
2023/08/10 13:23:13;;;;;;;;;4.00;4.00;;;;;;;;5080212;28;45323;-85
2023/08/10 13:25:38;;;;;;;;;2.75;2.75;;;;;;;;5070059;28;46275;-83
2023/08/10 13:28:03;;;;;;;;;6.50;5.00;;;;;;;;5056301;28;46110;-85
2023/08/10 13:30:28;;;;;;;;;4.75;4.75;;;;;;;;5076445;28;45537;-84
2023/08/10 13:32:54;;;;;;;;;3.00;3.00;;;;;;;;5077573;28;45837;-83
2023/08/10 13:35:19;;;;;;;;;5.50;4.75;;;;;;;;5057957;28;47065;-85
2023/08/10 13:37:44;;;;;;;;;3.00;3.00;;;;;;;;5057048;28;45763;-84
2023/08/10 13:40:11;;;;;;;;;3.00;3.00;;;;;;;;5076454;28;45453;-83
2023/08/10 13:42:37;;;;;;;;;3.25;3.25;;;;;;;;5058162;28;46082;-85
2023/08/10 13:45:02;;;;;;;;;4.00;4.00;;;;;;;;5045562;28;47111;-84
2023/08/10 13:47:28;;;;;;;;;4.00;2.00;;;;;;;;5077805;28;45683;-85
2023/08/10 13:49:53;;;;;;;;;4.00;4.00;;;;;;;;5078796;28;45982;-84
2023/08/10 13:52:18;;;;;;;;;4.00;4.00;;;;;;;;5083726;28;45434;-82
2023/08/10 13:54:44;;;;;;;;;2.50;2.50;;;;;;;;5068718;28;47288;-85
2023/08/10 13:57:11;;;;;;;;;1.50;1.50;;;;;;;;5066163;28;44886;-85
2023/08/10 13:59:37;;;;;;;;;4.25;3.00;;;;;;;;5061071;28;46103;-85
2023/08/10 14:02:02;;;;;;;;;4.50;4.50;;;;;;;;5062519;28;45702;-84
2023/08/10 14:04:28;;;;;;;;;4.00;4.00;;;;;;;;5048823;28;46764;-84
2023/08/10 14:06:54;;;;;;;;;5.75;4.75;;;;;;;;5059186;28;45543;-85
2023/08/10 14:09:20;;;;;;;;;4.75;4.75;;;;;;;;5078675;28;45518;-85
2023/08/10 14:11:46;;;;;;;;;5.00;5.00;;;;;;;;5060293;28;46255;-85
2023/08/10 14:14:12;;;;;;;;;4.25;4.25;;;;;;;;5059671;28;48398;-82
2023/08/10 14:16:37;;;;;;;;;4.00;3.00;;;;;;;;5055812;28;45229;-85
2023/08/10 14:19:04;;;;;;;;;4.75;4.75;;;;;;;;5054687;28;45964;-84
2023/08/10 14:21:29;;;;;;;;;6.75;5.50;;;;;;;;5074201;28;45455;-83
2023/08/10 14:23:54;;;;;;;;;4.00;4.00;;;;;;;;5074114;28;45378;-86
2023/08/10 14:26:19;;;;;;;;;3.50;3.50;;;;;;;;5056161;28;45406;-85
2023/08/10 14:28:45;;;;;;;;;3.25;2.50;;;;;;;;5075190;28;45308;-85
2023/08/10 14:31:10;;;;;;;;;5.00;2.50;;;;;;;;5064183;28;46067;-85
2023/08/10 14:33:36;;;;;;;;;3.00;3.00;;;;;;;;5052534;28;46957;-84